Time;durP1;ratioP1;P1;durP2;ratioP2;P2;SDS_P1;SDS_P2;PMS_P1;PMS_P2;Temp;Humidity;BMP_temperature;BMP_pressure;BME280_temperature;BME280_humidity;BME280_pressure;Samples;Min_cycle;Max_cycle;Signal;HPM_P1;HPM_P2
2021/04/30 00:01:00;;;;;;;6.13;3.60;;;;;;;;;;5015146;28;20162;-75
2021/04/30 00:03:42;;;;;;;7.05;3.35;;;;;;;;;;5013661;28;20172;-74
2021/04/30 00:06:12;;;;;;;7.93;4.43;;;;;;;;;;4995255;28;20186;-74
2021/04/30 00:08:39;;;;;;;15.02;5.20;;;;;;;;;;4995576;28;20162;-74
2021/04/30 00:11:07;;;;;;;4.53;3.45;;;;;;;;;;4994760;28;20150;-74
2021/04/30 00:13:34;;;;;;;8.18;4.25;;;5.10;1.00;;;;;;5003718;28;20629;-75
2021/04/30 00:16:12;;;;;;;7.47;4.13;;;;;;;;;;5014391;28;20185;-74
2021/04/30 00:18:48;;;;;;;9.13;4.70;;;;;;;;;;5014075;28;20631;-75
2021/04/30 00:21:19;;;;;;;8.48;4.28;;;;;;;;;;5014390;28;20525;-75
2021/04/30 00:23:45;;;;;;;8.52;4.68;;;;;;;;;;5014672;28;20257;-73
2021/04/30 00:26:11;;;;;;;7.22;3.95;;;;;;;;;;5014169;28;20227;-73
2021/04/30 00:29:06;;;;;;;8.90;4.55;;;5.00;1.00;;;;;;5014370;28;20232;-73
2021/04/30 00:31:36;;;;;;;8.30;3.65;;;;;;;;;;5010272;28;20177;-73
2021/04/30 00:34:04;;;;;;;8.63;4.05;;;4.90;1.00;;;;;;4998625;28;20173;-73
2021/04/30 00:36:42;;;;;;;11.48;4.72;;;;;;;;;;5013166;28;20227;-73
2021/04/30 00:39:12;;;;;;;9.30;4.40;;;;;;;;;;5014375;28;20168;-73
2021/04/30 00:41:41;;;;;;;9.80;4.82;;;4.80;1.00;;;;;;5014122;28;20175;-73
2021/04/30 00:44:07;;;;;;;12.40;4.78;;;;;;;;;;4997838;28;20680;-73
2021/04/30 00:46:34;;;;;;;6.40;3.80;;;;;;;;;;5029253;28;20201;-73
2021/04/30 00:49:12;;;;;;;6.28;4.07;;;;;;;;;;5014037;28;20655;-73
2021/04/30 00:51:42;;;;;;;7.03;4.00;;;;;;;;;;5012847;28;20631;-73
2021/04/30 00:54:09;;;;;;;8.35;4.40;;;;;;;;;;5012079;28;20172;-73
2021/04/30 00:56:35;;;;;;;8.40;4.57;;;4.60;1.00;;;;;;4994401;28;20248;-73
2021/04/30 00:59:06;;;;;;;9.02;4.85;;;;;;;;;;4994417;28;20597;-73
2021/04/30 01:01:37;;;;;;;6.28;4.22;;;;;;;;;;4997932;28;20252;-73
2021/04/30 01:04:07;;;;;;;7.10;3.90;;;4.50;1.00;;;;;;5032923;28;20586;-72
2021/04/30 01:06:33;;;;;;;6.90;4.00;;;;;;;;;;5033632;28;20152;-73
2021/04/30 01:09:02;;;;;;;7.63;4.20;;;;;;;;;;5034012;28;20198;-73
2021/04/30 01:11:42;;;;;;;7.25;3.70;;;;;;;;;;5033560;28;20153;-73
2021/04/30 01:14:09;;;;;;;11.55;5.07;;;;;;;;;;5030463;28;20263;-73
2021/04/30 01:16:35;;;;;;;12.20;4.72;;;;;;;;;;5013333;28;20227;-73
2021/04/30 01:19:20;;;;;;;8.45;4.25;;;4.30;1.00;;;;;;5013522;28;20173;-73
2021/04/30 01:21:46;;;;;;;7.70;4.18;;;;;;;;;;5012113;28;20221;-73
2021/04/30 01:24:12;;;;;;;7.85;5.00;;;;;;;;;;4998205;28;20197;-74
2021/04/30 01:26:43;;;;;;;11.68;5.28;;;4.20;1.00;;;;;;4997977;28;20162;-75
2021/04/30 01:29:12;;;;;;;7.43;4.40;;;;;;;;;;4997760;28;20158;-75
2021/04/30 01:31:49;;;;;;;9.25;3.70;;;;;;;;;;4998036;28;20161;-75
2021/04/30 01:34:18;;;;;;;6.63;3.60;;;;;;;;;;4997682;28;20253;-75
2021/04/30 01:37:18;;;;;;;6.75;4.30;;;4.20;1.00;;;;;;4997756;28;20240;-75
2021/04/30 01:40:00;;;;;;;7.30;4.45;;;;;;;;;;4998242;28;20637;-75
2021/04/30 01:42:27;;;;;;;10.40;4.85;;;;;;;;;;4996828;28;20174;-75
2021/04/30 01:44:54;;;;;;;8.05;4.85;;;;;;;;;;5017162;28;20193;-75
2021/04/30 01:47:30;;;;;;;9.18;4.50;;;;;;;;;;5005810;28;20273;-75
2021/04/30 01:50:00;;;;;;;10.52;5.05;;;;;;;;;;5015335;28;20513;-75
2021/04/30 01:52:36;;;;;;;11.00;4.88;;;;;;;;;;4997342;28;20628;-75
2021/04/30 01:55:13;;;;;;;11.30;4.50;;;;;;;;;;5010490;28;20605;-75
2021/04/30 01:58:23;;;;;;;7.32;4.20;;;3.90;1.00;;;;;;5014801;28;20165;-75
2021/04/30 02:01:07;;;;;;;8.95;4.57;;;;;;;;;;4999952;28;20174;-75
2021/04/30 02:03:33;;;;;;;7.20;4.10;;;3.80;1.00;;;;;;5011244;28;20175;-75
2021/04/30 02:06:06;;;;;;;12.85;5.50;;;;;;;;;;5016423;28;20184;-75
2021/04/30 02:08:32;;;;;;;9.50;4.82;;;;;;;;;;4997647;28;20166;-73
2021/04/30 02:11:00;;;;;;;14.65;6.32;;;;;;;;;;4997473;28;20484;-73
2021/04/30 02:13:31;;;;;;;8.43;4.60;;;;;;;;;;4996839;28;20181;-73
2021/04/30 02:15:57;;;;;;;7.85;4.25;;;;;;;;;;5000077;28;20819;-73
2021/04/30 02:18:30;;;;;;;13.27;3.95;;;;;;;;;;4999701;28;20253;-73
2021/04/30 02:21:00;;;;;;;6.97;4.70;;;;;;;;;;5016576;28;20157;-73
2021/04/30 02:23:26;;;;;;;12.27;4.80;;;;;;;;;;5016379;28;20185;-73
2021/04/30 02:26:17;;;;;;;8.05;4.57;;;;;;;;;;5016674;28;20153;-75
2021/04/30 02:29:11;;;;;;;8.88;4.90;;;;;;;;;;5014707;28;20165;-75
2021/04/30 02:31:38;;;;;;;10.60;4.55;;;;;;;;;;4997082;28;20154;-75
2021/04/30 02:34:30;;;;;;;8.68;5.07;;;3.40;1.00;;;;;;5014307;28;20624;-76
2021/04/30 02:37:06;;;;;;;6.30;4.38;;;;;;;;;;5016322;28;20168;-75
2021/04/30 02:39:37;;;;;;;8.75;4.50;;;;;;;;;;5016402;28;20157;-75
2021/04/30 02:42:07;;;;;;;10.02;4.43;;;;;;;;;;5012838;28;20192;-75
2021/04/30 02:44:36;;;;;;;7.95;4.80;;;;;;;;;;5015908;28;20188;-75
2021/04/30 02:47:07;;;;;;;7.60;4.03;;;;;;;;;;5016095;28;20161;-75
2021/04/30 02:49:41;;;;;;;8.38;4.60;;;;;;;;;;5016040;28;20161;-75
2021/04/30 02:52:09;;;;;;;10.73;4.25;;;3.20;1.00;;;;;;5006743;28;20170;-75
2021/04/30 02:54:37;;;;;;;11.90;4.53;;;;;;;;;;4995664;28;20196;-73
2021/04/30 02:57:04;;;;;;;10.68;5.53;;;3.20;1.00;;;;;;4999720;28;20184;-73
2021/04/30 02:59:30;;;;;;;8.20;4.45;;;;;;;;;;5015838;28;20216;-73
2021/04/30 03:01:57;;;;;;;15.75;7.55;;;;;;;;;;5012226;28;20177;-73
2021/04/30 03:04:24;;;;;;;11.88;5.35;;;;;;;;;;5007124;28;20205;-73
2021/04/30 03:07:06;;;;;;;14.40;5.38;;;;;;;;;;5006959;28;20223;-73
2021/04/30 03:09:36;;;;;;;19.17;7.60;;;;;;;;;;5016076;28;20177;-75
2021/04/30 03:12:03;;;;;;;15.48;7.72;;;;;;;;;;5015478;28;20153;-75
2021/04/30 03:14:29;;;;;;;11.25;5.45;;;3.00;1.00;;;;;;5013038;28;20195;-75
2021/04/30 03:16:55;;;;;;;19.03;8.27;;;;;;;;;;4995899;28;20649;-75
2021/04/30 03:19:21;;;;;;;19.48;5.95;;;;;;;;;;4995488;28;20162;-75
2021/04/30 03:21:47;;;;;;;6.68;3.75;;;;;;;;;;4995617;28;20160;-75
2021/04/30 03:24:13;;;;;;;17.70;5.07;;;;;;;;;;4995298;28;20644;-75
2021/04/30 03:27:06;;;;;;;8.63;4.85;;;3.00;1.00;;;;;;5013238;28;20215;-75
2021/04/30 03:29:32;;;;;;;6.97;4.80;;;;;;;;;;5015255;28;20179;-75
2021/04/30 03:32:00;;;;;;;21.80;5.53;;;;;;;;;;5015191;28;20157;-75
2021/04/30 03:34:48;;;;;;;10.65;5.40;;;2.90;1.00;;;;;;5015348;28;20161;-75
2021/04/30 03:37:19;;;;;;;8.38;4.80;;;;;;;;;;5015056;28;20214;-75
2021/04/30 03:39:45;;;;;;;6.82;4.57;;;;;;;;;;5015601;28;20216;-75
2021/04/30 03:42:12;;;;;;;8.27;4.90;;;;;;;;;;5014992;28;20161;-75
2021/04/30 03:45:06;;;;;;;7.75;4.97;;;2.70;1.00;;;;;;5014096;28;20189;-75
2021/04/30 03:47:36;;;;;;;10.32;5.32;;;;;;;;;;5015045;28;20257;-75
2021/04/30 03:50:07;;;;;;;15.40;8.23;;;;;;;;;;5014917;28;20165;-75
2021/04/30 03:52:36;;;;;;;17.02;8.05;;;;;;;;;;5013777;28;20593;-75
2021/04/30 03:55:07;;;;;;;16.70;8.82;;;;;;;;;;5015109;28;20166;-77
2021/04/30 03:57:36;;;;;;;14.73;7.78;;;;;;;;;;5001822;28;20525;-77
2021/04/30 04:00:07;;;;;;;13.88;7.72;;;;;;;;;;4995049;28;20168;-77
2021/04/30 04:02:37;;;;;;;13.73;7.53;;;;;;;;;;5008130;28;20248;-77
2021/04/30 04:05:07;;;;;;;14.30;8.10;;;;;;;;;;5014557;28;20247;-77
2021/04/30 04:07:36;;;;;;;15.25;8.00;;;;;;;;;;5014756;28;20164;-77
2021/04/30 04:10:18;;;;;;;13.48;7.57;;;;;;;;;;5001920;28;20174;-77
2021/04/30 04:12:45;;;;;;;18.65;8.07;;;;;;;;;;5004997;28;20173;-77
2021/04/30 04:15:10;;;;;;;9.40;5.75;;;2.50;1.00;;;;;;5013126;28;20197;-77
2021/04/30 04:17:55;;;;;;;16.77;7.37;;;;;;;;;;5029629;28;20232;-76
2021/04/30 04:20:42;;;;;;;15.60;8.63;;;2.50;1.00;;;;;;4995993;28;20635;-76
2021/04/30 04:23:30;;;;;;;11.80;5.43;;;2.60;1.00;;;;;;5009667;28;20177;-77
2021/04/30 04:25:56;;;;;;;10.75;5.35;;;;;;;;;;4995007;28;20174;-74
2021/04/30 04:28:30;;;;;;;14.32;6.47;;;;;;;;;;5011339;28;20175;-74
2021/04/30 04:31:01;;;;;;;16.38;6.00;;;;;;;;;;5014227;28;20632;-74
2021/04/30 04:33:28;;;;;;;11.60;6.45;;;;;;;;;;5014359;28;20166;-74
2021/04/30 04:36:00;;;;;;;10.70;5.90;;;;;;;;;;5006440;28;20177;-74
2021/04/30 04:38:36;;;;;;;18.90;9.18;;;;;;;;;;5011401;28;20209;-74
2021/04/30 04:41:06;;;;;;;11.98;5.95;;;;;;;;;;4994791;28;20523;-74
2021/04/30 04:43:36;;;;;;;18.73;7.22;;;;;;;;;;5000828;28;20719;-74
2021/04/30 04:46:03;;;;;;;16.70;5.60;;;;;;;;;;5000073;28;20180;-72
2021/04/30 04:48:29;;;;;;;13.25;5.80;;;;;;;;;;4994518;28;20240;-72
2021/04/30 04:51:07;;;;;;;15.75;6.55;;;;;;;;;;4994549;28;20569;-72
2021/04/30 04:53:33;;;;;;;15.40;6.88;;;;;;;;;;4994785;28;20188;-73
2021/04/30 04:56:19;;;;;;;22.13;7.63;;;3.00;1.00;;;;;;5016692;28;20165;-75
2021/04/30 04:59:06;;;;;;;10.50;5.90;;;3.10;1.00;;;;;;5035584;28;20525;-75
2021/04/30 05:01:43;;;;;;;11.02;5.70;;;;;;;;;;5017102;28;20181;-75
2021/04/30 05:10:52;;;;;;;14.45;6.82;;;;;;;;;;5002535;28;20525;-84
2021/04/30 05:13:23;;;;;;;9.67;6.07;;;3.40;1.00;;;;;;5020291;28;20177;-82
2021/04/30 05:15:49;;;;;;;16.40;7.68;;;4.20;1.00;;;;;;5020155;28;20423;-77
2021/04/30 05:18:19;;;;;;;12.57;6.17;;;;;;;;;;5008835;28;20192;-76
2021/04/30 05:20:55;;;;;;;12.15;5.78;;;3.60;1.00;;;;;;5020186;28;20153;-77
2021/04/30 05:23:37;;;;;;;12.88;7.30;;;;;;;;;;5020169;28;20169;-76
2021/04/30 05:26:12;;;;;;;12.52;6.47;;;;;;;;;;5015650;28;20660;-80
2021/04/30 05:28:55;;;;;;;17.15;7.15;;;;;;;;;;5016721;28;20196;-78
2021/04/30 05:31:21;;;;;;;20.63;7.93;;;;;;;;;;5019071;28;20165;-76
2021/04/30 05:33:54;;;;;;;24.10;8.30;;;;;;;;;;5020013;28;20165;-77
2021/04/30 05:36:21;;;;;;;20.42;7.13;;;;;;;;;;5017526;28;20208;-76
2021/04/30 05:38:54;;;;;;;16.20;8.65;;;;;;;;;;5018408;28;20219;-76
2021/04/30 05:41:21;;;;;;;15.70;7.20;;;;;;;;;;5018937;28;20173;-76
2021/04/30 05:43:47;;;;;;;20.95;8.88;;;;;;;;;;5017487;28;20176;-76
2021/04/30 05:46:13;;;;;;;28.13;10.13;;;;;;;;;;5017472;28;20294;-77
2021/04/30 05:48:39;;;;;;;21.83;9.68;;;;;;;;;;5013806;28;20173;-77
2021/04/30 05:51:05;;;;;;;30.58;12.73;;;;;;;;;;5018016;28;20185;-77
2021/04/30 05:53:31;;;;;;;24.30;10.85;;;;;;;;;;5011569;28;20158;-77
2021/04/30 05:56:00;;;;;;;20.75;10.60;;;;;;;;;;5015083;28;20548;-77
2021/04/30 05:58:26;;;;;;;26.70;11.80;;;;;;;;;;5012520;28;20216;-77
2021/04/30 06:00:52;;;;;;;23.63;10.45;;;;;;;;;;5018339;28;20177;-76
2021/04/30 06:03:20;;;;;;;26.23;12.07;;;;;;;;;;5019267;28;20211;-76
2021/04/30 06:05:46;;;;;;;24.57;11.27;;;;;;;;;;5009818;28;20205;-76
2021/04/30 06:08:12;;;;;;;27.20;12.17;;;;;;;;;;5001072;28;20420;-76
2021/04/30 06:10:38;;;;;;;26.83;11.20;;;;;;;;;;5015838;28;20462;-76
2021/04/30 06:13:05;;;;;;;27.20;11.67;;;;;;;;;;5006214;28;20782;-74
2021/04/30 06:15:32;;;;;;;31.03;10.80;;;;;;;;;;5006132;28;20459;-74
2021/04/30 06:17:58;;;;;;;21.27;10.13;;;;;;;;;;4998775;28;20436;-74
2021/04/30 06:20:24;;;;;;;28.07;11.47;;;;;;;;;;5000358;28;20405;-74
2021/04/30 06:22:50;;;;;;;24.70;11.40;;;;;;;;;;5015604;28;20423;-74
2021/04/30 06:25:16;;;;;;;29.90;12.03;;;;;;;;;;5015549;28;20448;-74
2021/04/30 06:27:42;;;;;;;24.97;11.83;;;;;;;;;;5013884;28;20762;-74
2021/04/30 06:30:08;;;;;;;26.77;12.27;;;;;;;;;;5014310;28;20458;-74
2021/04/30 06:32:35;;;;;;;24.97;11.33;;;;;;;;;;5015477;28;20376;-74
2021/04/30 06:35:01;;;;;;;22.70;11.00;;;;;;;;;;5014700;28;20477;-74
2021/04/30 06:37:27;;;;;;;20.97;10.50;;;;;;;;;;5014969;28;20431;-74
2021/04/30 06:39:53;;;;;;;23.70;12.17;;;8.30;1.00;;;;;;5015005;28;20442;-74
2021/04/30 06:42:20;;;;;;;21.80;11.60;;;;;;;;;;5026851;28;20890;-74
2021/04/30 06:44:46;;;;;;;67.57;14.70;;;;;;;;;;5012343;28;20451;-74
2021/04/30 06:47:12;;;;;;;19.80;11.23;;;;;;;;;;5009844;28;20680;-74
2021/04/30 06:49:38;;;;;;;23.90;11.10;;;;;;;;;;5014658;28;20988;-74
2021/04/30 06:52:04;;;;;;;25.03;11.30;;;;;;;;;;5014984;28;20393;-74
2021/04/30 06:54:30;;;;;;;20.83;11.50;;;;;;;;;;5014953;28;20457;-74
2021/04/30 06:56:56;;;;;;;29.23;11.77;;;;;;;;;;5015174;28;20404;-75
2021/04/30 06:59:22;;;;;;;19.97;11.00;;;;;;;;;;5015007;28;20937;-76
2021/04/30 07:01:48;;;;;;;21.70;10.80;;;;;;;;;;5014071;28;20420;-76
2021/04/30 07:04:14;;;;;;;20.20;10.87;;;;;;;;;;4997111;28;20805;-76
2021/04/30 07:06:40;;;;;;;21.30;10.20;;;;;;;;;;4999950;28;20404;-75
2021/04/30 07:09:06;;;;;;;19.97;10.60;;;10.70;1.00;;;;;;5014750;28;20388;-76
2021/04/30 07:11:32;;;;;;;26.57;11.90;;;;;;;;;;5014679;28;20403;-75
2021/04/30 07:13:59;;;;;;;19.73;11.60;;;;;;;;;;5014848;28;20219;-73
2021/04/30 07:16:25;;;;;;;19.63;11.17;;;;;;;;;;5013830;28;20439;-73
2021/04/30 07:18:51;;;;;;;22.43;10.50;;;;;;;;;;5014069;28;20427;-74
2021/04/30 07:21:17;;;;;;;21.70;11.37;;;;;;;;;;5013464;28;20439;-75
2021/04/30 07:23:43;;;;;;;19.83;10.90;;;;;;;;;;5014398;28;20393;-74
2021/04/30 07:26:09;;;;;;;23.80;11.23;;;;;;;;;;5014332;28;20392;-74
2021/04/30 07:28:35;;;;;;;28.60;12.33;;;;;;;;;;5013740;28;20423;-75
2021/04/30 07:31:02;;;;;;;20.63;11.73;;;;;;;;;;5012846;28;20432;-75
2021/04/30 07:33:29;;;;;;;27.23;11.40;;;;;;;;;;5013077;28;20763;-75
2021/04/30 07:35:55;;;;;;;21.70;10.83;;;;;;;;;;5013345;28;20432;-81
2021/04/30 07:38:21;;;;;;;22.27;11.20;;;;;;;;;;5012869;28;20422;-81
2021/04/30 07:40:47;;;;;;;19.30;10.37;;;;;;;;;;5013025;28;20514;-81
2021/04/30 07:43:14;;;;;;;18.40;10.13;;;12.30;1.00;;;;;;5012220;28;20404;-76
2021/04/30 07:45:41;;;;;;;21.70;9.80;;;12.40;1.00;;;;;;5002616;28;20471;-75
2021/04/30 07:48:08;;;;;;;20.40;9.80;;;12.50;1.00;;;;;;5014011;28;20785;-75
2021/04/30 07:50:35;;;;;;;18.10;9.30;;;12.60;1.00;;;;;;5014012;28;20886;-75
2021/04/30 07:53:01;;;;;;;21.57;9.87;;;;;;;;;;5014074;28;20403;-75
2021/04/30 07:55:27;;;;;;;19.70;10.60;;;;;;;;;;5013824;28;20949;-76
2021/04/30 07:57:53;;;;;;;19.00;10.00;;;;;;;;;;5013659;28;20432;-73
2021/04/30 08:00:19;;;;;;;21.87;10.07;;;12.80;1.00;;;;;;5013453;28;20534;-74
2021/04/30 08:02:48;;;;;;;21.53;10.40;;;12.80;1.00;;;;;;5013784;28;20407;-73
2021/04/30 08:05:15;;;;;;;17.17;9.77;;;;;;;;;;5006011;28;20453;-73
2021/04/30 08:07:42;;;;;;;24.43;9.47;;;;;;;;;;4994101;28;20401;-73
2021/04/30 08:10:09;;;;;;;21.10;8.77;;;13.00;1.00;;;;;;4994093;28;20404;-74
2021/04/30 08:12:35;;;;;;;19.03;9.10;;;;;;;;;;4994490;28;20401;-73
2021/04/30 08:15:02;;;;;;;17.60;9.90;;;;;;;;;;4994049;28;20399;-73
2021/04/30 08:17:27;;;;;;;16.17;9.67;;;;;;;;;;5002040;28;20428;-73
2021/04/30 08:19:57;;;;;;;20.50;8.97;;;;;;;;;;5012778;28;20775;-74
2021/04/30 08:22:24;;;;;;;19.53;9.20;;;;;;;;;;5013512;28;20488;-74
2021/04/30 08:24:50;;;;;;;15.50;8.23;;;;;;;;;;5013271;28;20447;-74
2021/04/30 08:27:16;;;;;;;17.83;8.97;;;;;;;;;;5013347;28;20398;-74
2021/04/30 08:29:42;;;;;;;22.43;9.53;;;;;;;;;;5010733;28;20460;-73
2021/04/30 08:32:08;;;;;;;41.23;8.70;;;;;;;;;;5011736;28;20459;-73
2021/04/30 08:34:34;;;;;;;16.77;9.60;;;;;;;;;;5013266;28;20475;-73
2021/04/30 08:37:00;;;;;;;17.40;9.30;;;;;;;;;;5012798;28;20966;-73
2021/04/30 08:39:25;;;;;;;15.40;8.83;;;;;;;;;;5013047;28;20399;-73
2021/04/30 08:41:52;;;;;;;18.93;8.63;;;;;;;;;;5009156;28;20900;-73
2021/04/30 08:44:18;;;;;;;15.43;8.90;;;;;;;;;;4993903;28;20519;-73
2021/04/30 08:46:44;;;;;;;17.90;8.00;;;;;;;;;;4995630;28;20397;-74
2021/04/30 08:49:12;;;;;;;17.17;8.50;;;;;;;;;;5013133;28;20411;-74
2021/04/30 08:51:43;;;;;;;17.77;8.43;;;13.90;1.00;;;;;;5013058;28;20855;-74
2021/04/30 08:54:09;;;;;;;20.27;9.30;;;;;;;;;;5013189;28;20411;-74
2021/04/30 08:56:46;;;;;;;35.20;9.50;;;;;;;;;;5008108;28;20849;-74
2021/04/30 08:59:13;;;;;;;12.87;8.43;;;14.20;1.00;;;;;;5009275;28;20416;-74
2021/04/30 09:01:40;;;;;;;19.03;8.47;;;;;;;;;;5012200;28;20844;-74
2021/04/30 09:04:07;;;;;;;17.17;8.00;;;14.10;1.00;;;;;;5000535;28;20446;-74
2021/04/30 09:06:38;;;;;;;21.53;8.20;;;14.10;1.00;;;;;;5013116;28;20403;-74
2021/04/30 09:09:14;;;;;;;20.50;8.10;;;14.40;1.00;;;;;;5013040;28;20869;-74
2021/04/30 09:11:42;;;;;;;16.90;7.93;;;14.50;1.00;;;;;;5012799;28;20423;-74
2021/04/30 09:14:29;;;;;;;14.27;7.60;;;14.80;1.00;;;;;;5006272;28;20895;-73
2021/04/30 09:17:13;;;;;;;22.20;8.43;;;15.00;1.00;;;;;;5004689;28;20444;-73
2021/04/30 09:19:51;;;;;;;16.07;8.00;;;15.00;1.00;;;;;;4993124;28;20492;-74
2021/04/30 09:22:17;;;;;;;14.33;7.30;;;15.00;1.00;;;;;;4993523;28;20414;-74
2021/04/30 09:24:49;;;;;;;13.43;7.83;;;15.00;1.00;;;;;;4993221;28;20527;-74
2021/04/30 09:27:31;;;;;;;12.33;7.20;;;15.20;1.00;;;;;;4992620;28;20448;-74
2021/04/30 09:30:31;;;;;;;17.20;8.00;;;15.20;1.00;;;;;;5007852;28;20431;-74
2021/04/30 09:33:03;;;;;;;12.43;7.13;;;15.20;1.00;;;;;;4986172;28;20436;-74
2021/04/30 09:35:29;;;;;;;13.20;7.10;;;;;;;;;;4987744;28;20542;-74
2021/04/30 09:37:57;;;;;;;12.23;7.23;;;;;;;;;;4986724;28;20417;-74
2021/04/30 09:40:31;;;;;;;10.47;6.93;;;14.50;1.00;;;;;;4991070;28;20504;-74
2021/04/30 09:43:08;;;;;;;13.93;7.33;;;14.50;1.00;;;;;;4993877;28;20414;-74
2021/04/30 09:45:37;;;;;;;12.60;6.50;;;14.60;1.00;;;;;;4996932;28;20444;-72
2021/04/30 09:48:10;;;;;;;12.43;6.33;;;14.10;1.00;;;;;;4995916;28;20429;-73
2021/04/30 09:50:37;;;;;;;12.60;6.23;;;14.40;1.00;;;;;;4994827;28;20425;-73
2021/04/30 09:53:09;;;;;;;10.63;6.83;;;;;;;;;;4990403;28;20897;-73
2021/04/30 09:55:49;;;;;;;15.97;6.97;;;14.30;1.00;;;;;;4994433;28;20428;-73
2021/04/30 09:58:23;;;;;;;14.20;6.47;;;14.20;1.00;;;;;;4996492;28;20408;-72
2021/04/30 10:00:50;;;;;;;21.03;7.57;;;14.20;1.00;;;;;;4996260;28;20749;-73
2021/04/30 10:03:18;;;;;;;13.20;7.30;;;14.10;1.00;;;;;;4996454;28;20401;-72
2021/04/30 10:06:02;;;;;;;13.50;7.10;;;;;;;;;;4996292;28;20487;-73
2021/04/30 10:08:30;;;;;;;11.80;6.73;;;13.80;1.00;;;;;;4996114;28;20548;-73
2021/04/30 10:10:56;;;;;;;16.67;8.00;;;;;;;;;;4996268;28;20398;-73
2021/04/30 10:13:25;;;;;;;16.23;7.60;;;;;;;;;;4995498;28;20812;-73
2021/04/30 10:15:50;;;;;;;18.70;7.50;;;14.10;1.00;;;;;;4996363;28;20397;-74
2021/04/30 10:18:18;;;;;;;17.57;6.50;;;;;;;;;;4995910;28;20411;-74
2021/04/30 10:20:45;;;;;;;12.10;6.90;;;14.30;1.00;;;;;;4996075;28;20393;-74
2021/04/30 10:23:19;;;;;;;19.20;7.13;;;14.30;1.00;;;;;;4995506;28;20401;-74
2021/04/30 10:25:49;;;;;;;10.00;6.40;;;14.40;1.00;;;;;;4996112;28;20506;-74
2021/04/30 10:28:21;;;;;;;9.40;5.60;;;14.50;1.00;;;;;;4996077;28;20743;-74
2021/04/30 10:31:06;;;;;;;16.30;7.00;;;14.70;1.00;;;;;;4996109;28;20689;-73
2021/04/30 10:33:32;;;;;;;14.23;6.17;;;;;;;;;;4991474;28;20437;-73
2021/04/30 10:36:07;;;;;;;14.73;7.20;;;;;;;;;;4995198;28;20420;-73
2021/04/30 10:38:42;;;;;;;11.57;5.70;;;14.70;1.00;;;;;;4994194;28;20778;-73
2021/04/30 10:41:12;;;;;;;15.53;6.23;;;14.20;1.00;;;;;;4994432;28;20440;-73
2021/04/30 10:43:39;;;;;;;14.23;7.00;;;14.40;1.00;;;;;;4991910;28;20395;-72
2021/04/30 10:46:14;;;;;;;12.07;7.40;;;;;;;;;;4995659;28;20555;-75
2021/04/30 10:49:07;;;;;;;10.40;6.17;;;14.60;1.00;;;;;;4995776;28;20388;-75
2021/04/30 10:51:34;;;;;;;14.70;7.37;;;14.50;1.00;;;;;;4995496;28;20414;-74
2021/04/30 10:54:25;;;;;;;13.13;7.90;;;14.30;1.00;;;;;;4995055;28;20918;-74
2021/04/30 10:57:07;;;;;;;14.23;7.27;;;14.50;1.00;;;;;;4994698;28;20744;-73
2021/04/30 10:59:36;;;;;;;20.63;7.63;;;14.70;1.00;;;;;;4994061;28;20437;-72
2021/04/30 11:02:12;;;;;;;12.00;7.10;;;;;;;;;;4995862;28;20411;-72
2021/04/30 11:04:38;;;;;;;15.30;7.70;;;;;;;;;;4995689;28;20459;-73
2021/04/30 11:07:09;;;;;;;16.37;8.77;;;14.60;1.00;;;;;;4996320;28;20393;-73
2021/04/30 11:09:38;;;;;;;121.43;15.83;;;14.80;1.00;;;;;;4990248;28;20527;-73
2021/04/30 11:12:25;;;;;;;23.37;8.80;;;15.10;1.00;;;;;;4984632;28;20448;-73
2021/04/30 11:15:05;;;;;;;33.93;10.03;;;15.30;1.00;;;;;;4984455;28;20411;-73
2021/04/30 11:17:49;;;;;;;9.53;5.10;;;15.20;1.00;;;;;;4993950;28;20522;-73
2021/04/30 11:20:17;;;;;;;14.00;7.87;;;15.30;1.00;;;;;;4987147;28;20495;-72
2021/04/30 11:23:13;;;;;;;22.90;7.20;;;15.40;1.00;;;;;;4994548;28;20459;-72
2021/04/30 11:25:57;;;;;;;14.77;7.47;;;15.30;1.00;;;;;;4993345;28;20475;-72
2021/04/30 11:28:34;;;;;;;31.73;9.43;;;15.70;1.00;;;;;;4995229;28;20883;-73
2021/04/30 11:31:13;;;;;;;19.43;8.83;;;15.80;1.00;;;;;;4998701;28;20413;-73
2021/04/30 11:33:40;;;;;;;23.70;10.97;;;16.20;1.00;;;;;;4992437;28;20428;-73
2021/04/30 11:36:08;;;;;;;14.83;8.30;;;15.90;1.00;;;;;;4993197;28;20522;-73
2021/04/30 11:38:39;;;;;;;16.60;8.80;;;15.90;1.00;;;;;;4994195;28;20806;-73
2021/04/30 11:41:06;;;;;;;19.63;8.90;;;15.90;1.00;;;;;;4995174;28;20484;-73
2021/04/30 11:43:32;;;;;;;16.20;9.10;;;;;;;;;;4994920;28;20399;-73
2021/04/30 11:45:58;;;;;;;20.07;9.27;;;16.00;1.00;;;;;;4995420;28;20821;-73
2021/04/30 11:48:26;;;;;;;14.07;8.50;;;16.00;1.00;;;;;;4995030;28;20425;-73
2021/04/30 11:51:03;;;;;;;19.10;9.07;;;;;;;;;;4994585;28;20407;-73
2021/04/30 11:53:29;;;;;;;22.73;9.07;;;;;;;;;;4992620;28;20452;-73
2021/04/30 11:55:57;;;;;;;33.57;12.57;;;;;;;;;;4994167;28;20409;-74
2021/04/30 11:58:23;;;;;;;20.60;9.60;;;;;;;;;;4994208;28;20497;-73
2021/04/30 12:00:52;;;;;;;32.50;16.03;;;15.80;1.00;;;;;;4994540;28;20444;-73
2021/04/30 12:03:18;;;;;;;20.10;10.33;;;;;;;;;;4994269;28;20893;-73
2021/04/30 12:05:44;;;;;;;23.30;9.93;;;;;;;;;;4992909;28;21012;-73
2021/04/30 12:08:11;;;;;;;22.27;9.77;;;15.40;1.00;;;;;;4993944;28;20379;-73
2021/04/30 12:10:38;;;;;;;19.77;9.40;;;;;;;;;;4992702;28;20443;-73
2021/04/30 12:13:07;;;;;;;17.80;8.53;;;15.30;1.00;;;;;;4993925;28;20383;-73
2021/04/30 12:15:40;;;;;;;18.60;9.13;;;15.30;1.00;;;;;;4994314;28;20418;-72
2021/04/30 12:18:06;;;;;;;19.17;8.17;;;;;;;;;;4993849;28;20489;-73
2021/04/30 12:20:34;;;;;;;15.00;8.30;;;15.40;1.00;;;;;;5008774;28;20405;-73
2021/04/30 12:23:02;;;;;;;17.07;8.67;;;15.30;1.00;;;;;;4994497;28;20436;-73
2021/04/30 12:25:45;;;;;;;20.93;9.80;;;15.30;1.00;;;;;;4993148;28;20831;-73
2021/04/30 12:28:24;;;;;;;21.53;9.50;;;15.60;1.00;;;;;;4975695;28;20429;-73
2021/04/30 12:31:09;;;;;;;12.97;7.87;;;15.60;1.00;;;;;;4994207;28;20374;-73
2021/04/30 12:33:43;;;;;;;25.77;10.87;;;15.30;1.00;;;;;;4992881;28;20481;-73
2021/04/30 12:36:09;;;;;;;16.30;8.57;;;;;;;;;;4992228;28;20441;-73
2021/04/30 12:38:36;;;;;;;18.97;9.13;;;15.40;1.00;;;;;;4993802;28;20429;-73
2021/04/30 12:41:25;;;;;;;20.67;9.00;;;15.60;1.00;;;;;;5007575;28;20946;-74
2021/04/30 12:43:54;;;;;;;18.23;8.40;;;;;;;;;;4993543;28;20499;-73
2021/04/30 12:46:26;;;;;;;23.67;10.10;;;15.80;1.00;;;;;;4992437;28;20394;-72
2021/04/30 12:48:55;;;;;;;16.43;9.23;;;16.00;1.00;;;;;;4993298;28;20420;-73
2021/04/30 12:51:28;;;;;;;21.77;9.60;;;16.10;1.00;;;;;;4991720;28;20492;-73
2021/04/30 12:53:55;;;;;;;88.40;15.10;;;;;;;;;;4989692;28;20407;-73
2021/04/30 12:56:29;;;;;;;19.80;8.83;;;16.20;1.00;;;;;;4987104;28;20407;-73
2021/04/30 12:59:11;;;;;;;15.43;8.20;;;15.70;1.00;;;;;;4988384;28;20408;-72
2021/04/30 13:01:43;;;;;;;27.40;9.10;;;15.80;1.00;;;;;;4989011;28;20743;-72
2021/04/30 13:04:10;;;;;;;26.73;10.27;;;15.70;1.00;;;;;;4991171;28;20963;-73
2021/04/30 13:06:38;;;;;;;17.50;9.07;;;;;;;;;;4993237;28;20368;-77
2021/04/30 13:09:05;;;;;;;19.83;9.10;;;15.70;1.00;;;;;;4992552;28;20486;-73
2021/04/30 13:11:36;;;;;;;23.63;9.37;;;15.90;1.00;;;;;;4991493;28;20414;-74
2021/04/30 13:14:02;;;;;;;17.00;8.83;;;;;;;;;;4991430;28;20471;-75
2021/04/30 13:16:48;;;;;;;15.53;8.37;;;;;;;;;;4982457;28;20473;-75
2021/04/30 13:19:22;;;;;;;18.93;9.00;;;16.10;1.00;;;;;;4994699;28;20411;-75
2021/04/30 13:21:53;;;;;;;19.43;8.77;;;16.40;1.00;;;;;;4997161;28;20433;-75
2021/04/30 13:24:24;;;;;;;20.23;8.77;;;16.60;1.00;;;;;;4995088;28;20534;-77
2021/04/30 13:27:05;;;;;;;20.27;10.00;;;16.70;1.00;;;;;;4997172;28;20881;-77
2021/04/30 13:29:32;;;;;;;23.23;8.87;;;;;;;;;;4996875;28;20489;-76
2021/04/30 13:32:24;;;;;;;16.80;9.03;;;16.70;1.00;;;;;;4996809;28;20412;-77
2021/04/30 13:34:56;;;;;;;22.10;9.50;;;;;;;;;;4997806;28;20844;-77
2021/04/30 13:37:24;;;;;;;19.57;8.80;;;16.60;1.00;;;;;;4995742;28;20399;-76
2021/04/30 13:39:52;;;;;;;28.43;10.03;;;16.40;1.00;;;;;;4996677;28;20454;-76
2021/04/30 13:42:30;;;;;;;17.43;8.63;;;16.20;1.00;;;;;;4993989;28;20395;-76
2021/04/30 13:44:59;;;;;;;21.80;8.87;;;16.30;1.00;;;;;;5012056;28;20461;-76
2021/04/30 13:47:54;;;;;;;18.17;10.33;;;16.00;1.00;;;;;;4997553;28;20733;-74
2021/04/30 13:50:21;;;;;;;18.80;9.03;;;16.10;1.00;;;;;;4996477;28;20495;-73
2021/04/30 13:52:49;;;;;;;23.50;8.73;;;;;;;;;;5012732;28;20978;-74
2021/04/30 13:55:19;;;;;;;12.93;7.60;;;;;;;;;;5011154;28;20402;-73
2021/04/30 13:57:46;;;;;;;20.53;8.93;;;;;;;;;;5007497;28;20409;-74
2021/04/30 14:00:13;;;;;;;19.07;9.77;;;;;;;;;;4996606;28;20482;-74
2021/04/30 14:02:44;;;;;;;14.43;8.10;;;16.30;1.00;;;;;;4997247;28;20420;-75
2021/04/30 14:05:17;;;;;;;14.30;7.70;;;16.40;1.00;;;;;;4996887;28;20439;-75
2021/04/30 14:07:43;;;;;;;15.93;9.10;;;16.30;1.00;;;;;;4996663;28;20421;-76
2021/04/30 14:10:15;;;;;;;21.03;9.83;;;16.30;1.00;;;;;;4997167;28;20455;-75
2021/04/30 14:12:44;;;;;;;14.90;8.60;;;16.40;1.00;;;;;;4994558;28;20800;-75
2021/04/30 14:15:25;;;;;;;14.13;8.13;;;;;;;;;;5012167;28;20411;-76
2021/04/30 14:18:01;;;;;;;16.07;9.23;;;;;;;;;;4997331;28;20908;-74